createdAt,value
2022-12-17T00:02:00.636Z,99.90
2022-12-17T00:05:04.559Z,99.90
2022-12-17T00:08:18.524Z,99.90
2022-12-17T00:11:22.248Z,99.90
2022-12-17T00:14:26.096Z,99.90
2022-12-17T00:17:30.446Z,99.90
2022-12-17T00:20:34.570Z,99.90
2022-12-17T00:23:38.844Z,99.90
2022-12-17T00:26:42.896Z,99.90
2022-12-17T00:29:46.539Z,99.90
2022-12-17T00:32:50.503Z,99.90
2022-12-17T00:35:54.621Z,99.90
2022-12-17T00:39:00.012Z,99.90
2022-12-17T00:42:03.751Z,99.90
2022-12-17T00:45:07.646Z,99.90
2022-12-17T00:48:11.442Z,99.90
2022-12-17T00:51:15.505Z,99.90
2022-12-17T00:54:19.197Z,99.90
2022-12-17T00:57:23.162Z,99.90
2022-12-17T01:00:27.830Z,99.90
2022-12-17T01:03:32.130Z,99.90
2022-12-17T01:06:35.873Z,99.90
2022-12-17T01:09:39.773Z,99.90
2022-12-17T01:12:43.603Z,99.90
2022-12-17T01:15:47.430Z,99.90
2022-12-17T01:18:51.473Z,99.90
2022-12-17T01:21:55.583Z,99.90
2022-12-17T01:25:00.616Z,99.90
2022-12-17T01:28:07.708Z,99.90
2022-12-17T01:31:11.691Z,99.90
2022-12-17T01:34:15.573Z,99.90
2022-12-17T01:37:19.454Z,99.90
2022-12-17T01:40:23.760Z,99.90
2022-12-17T01:43:30.890Z,99.90
2022-12-17T01:46:35.319Z,99.90
2022-12-17T01:49:42.893Z,99.90
2022-12-17T01:52:46.784Z,99.90
2022-12-17T01:55:50.791Z,99.90
2022-12-17T01:58:54.569Z,99.90
2022-12-17T02:01:59.218Z,99.90
2022-12-17T02:05:02.838Z,99.90
2022-12-17T02:08:33.708Z,99.90
2022-12-17T02:11:49.873Z,99.90
2022-12-17T02:15:01.510Z,99.90
2022-12-17T02:18:12.434Z,99.90
2022-12-17T02:21:18.426Z,99.90
2022-12-17T02:24:51.113Z,99.90
2022-12-17T02:27:54.893Z,99.90
2022-12-17T02:30:59.579Z,99.90
2022-12-17T02:34:04.397Z,99.90
2022-12-17T02:37:08.134Z,99.90
2022-12-17T02:40:12.161Z,99.90
2022-12-17T02:43:17.089Z,99.90
2022-12-17T02:46:20.886Z,99.90
2022-12-17T02:49:24.775Z,99.90
2022-12-17T02:52:34.694Z,99.90
2022-12-17T02:55:38.828Z,99.90
2022-12-17T02:58:42.566Z,99.90
2022-12-17T03:01:46.462Z,99.90
2022-12-17T03:04:50.206Z,99.90
2022-12-17T03:07:54.125Z,99.90
2022-12-17T03:10:57.862Z,99.90
2022-12-17T03:14:01.779Z,99.90
2022-12-17T03:17:05.695Z,99.90
2022-12-17T03:20:09.407Z,99.90
2022-12-17T03:23:23.941Z,99.90
2022-12-17T03:26:27.929Z,99.90
2022-12-17T03:29:31.748Z,99.90
2022-12-17T03:32:35.742Z,99.90
2022-12-17T03:35:39.645Z,99.90
2022-12-17T03:38:43.361Z,99.90
2022-12-17T03:41:47.426Z,99.90
2022-12-17T03:44:51.465Z,99.90
2022-12-17T03:47:55.219Z,99.90
2022-12-17T03:50:59.745Z,99.90
2022-12-17T03:54:04.059Z,99.90
2022-12-17T03:57:11.728Z,99.90
2022-12-17T04:00:18.093Z,99.90
2022-12-17T04:03:21.904Z,99.90
2022-12-17T04:06:25.551Z,99.50
2022-12-17T04:09:29.480Z,99.40
2022-12-17T04:12:33.234Z,99.70
2022-12-17T04:15:37.353Z,98.80
2022-12-17T04:18:41.091Z,98.90
2022-12-17T04:21:44.900Z,98.90
2022-12-17T04:24:48.662Z,99.10
2022-12-17T04:27:52.441Z,98.80
2022-12-17T04:30:56.292Z,97.60
2022-12-17T04:33:59.930Z,98.60
2022-12-17T04:37:03.751Z,99.00
2022-12-17T04:40:07.402Z,99.10
2022-12-17T04:43:11.434Z,99.40
2022-12-17T04:46:16.116Z,99.80
2022-12-17T04:49:19.893Z,99.70
2022-12-17T04:52:23.830Z,99.60
2022-12-17T04:55:27.749Z,99.70
2022-12-17T04:58:32.002Z,99.70
2022-12-17T05:01:36.034Z,99.90
2022-12-17T05:04:39.643Z,99.90
2022-12-17T05:07:43.597Z,99.90
2022-12-17T05:10:47.598Z,99.90
2022-12-17T05:13:59.079Z,99.90
2022-12-17T05:17:02.925Z,99.90
2022-12-17T05:20:06.839Z,99.90
2022-12-17T05:23:10.780Z,99.90
2022-12-17T05:26:29.581Z,99.90
2022-12-17T05:29:33.496Z,99.90
2022-12-17T05:32:37.485Z,99.90
2022-12-17T05:35:41.549Z,99.90
2022-12-17T05:38:45.505Z,99.90
2022-12-17T05:41:49.335Z,99.90
2022-12-17T05:44:53.194Z,99.90
2022-12-17T05:47:57.015Z,99.90
2022-12-17T05:51:00.940Z,99.90
2022-12-17T05:54:04.853Z,99.90
2022-12-17T05:57:08.697Z,99.90
2022-12-17T06:00:12.718Z,99.90
2022-12-17T06:03:18.413Z,99.90
2022-12-17T06:06:22.318Z,99.90
2022-12-17T06:09:26.242Z,99.90
2022-12-17T06:12:29.926Z,99.90
2022-12-17T06:15:33.836Z,99.90
2022-12-17T06:18:37.871Z,99.90
2022-12-17T06:21:41.790Z,99.90
2022-12-17T06:24:46.368Z,99.90
2022-12-17T06:27:50.816Z,99.90
2022-12-17T06:30:54.597Z,99.90
2022-12-17T06:33:59.115Z,99.90
2022-12-17T06:37:04.181Z,99.90
2022-12-17T06:40:08.050Z,99.90
2022-12-17T06:43:13.246Z,99.90
2022-12-17T06:46:16.995Z,99.90
2022-12-17T06:49:20.807Z,99.90
2022-12-17T06:52:24.776Z,99.90
2022-12-17T06:55:29.313Z,99.90
2022-12-17T06:58:32.950Z,99.90
2022-12-17T07:01:37.150Z,99.90
2022-12-17T07:04:41.016Z,99.90
2022-12-17T07:07:44.921Z,99.90
2022-12-17T07:10:49.017Z,99.90
2022-12-17T07:13:53.133Z,99.90
2022-12-17T07:16:57.142Z,99.90
2022-12-17T07:20:00.985Z,99.90
2022-12-17T07:23:04.964Z,99.90
2022-12-17T07:26:09.163Z,99.90
2022-12-17T07:29:13.005Z,99.90
2022-12-17T07:32:16.991Z,99.90
2022-12-17T07:35:20.961Z,99.90
2022-12-17T07:38:25.900Z,99.90
2022-12-17T07:41:29.725Z,99.90
2022-12-17T07:44:33.507Z,99.90
2022-12-17T07:47:37.354Z,99.90
2022-12-17T07:50:41.398Z,99.90
2022-12-17T07:53:45.773Z,99.90
2022-12-17T07:56:50.006Z,99.90
2022-12-17T07:59:53.857Z,99.90
2022-12-17T08:02:58.118Z,99.90
2022-12-17T08:06:02.257Z,99.90
2022-12-17T08:09:06.121Z,99.90
2022-12-17T08:12:09.926Z,99.90
2022-12-17T08:15:13.796Z,99.90
2022-12-17T08:18:26.545Z,99.90
2022-12-17T08:21:31.291Z,99.90
2022-12-17T08:24:35.222Z,99.90
2022-12-17T08:27:39.273Z,99.90
2022-12-17T08:30:43.292Z,99.90
2022-12-17T08:33:47.340Z,99.90
2022-12-17T08:36:51.302Z,99.90
2022-12-17T08:39:55.315Z,99.90
2022-12-17T08:42:59.237Z,99.90
2022-12-17T08:46:10.951Z,99.90
2022-12-17T08:49:14.884Z,99.90
2022-12-17T08:52:19.479Z,99.90
2022-12-17T08:55:27.512Z,99.90
2022-12-17T08:58:31.466Z,99.90
2022-12-17T09:01:35.553Z,99.90
2022-12-17T09:04:39.227Z,99.90
2022-12-17T09:07:43.202Z,99.90
2022-12-17T09:10:46.934Z,99.90
2022-12-17T09:13:51.501Z,99.90
2022-12-17T09:16:55.379Z,99.90
2022-12-17T09:19:59.222Z,99.90
2022-12-17T09:23:02.915Z,99.90
2022-12-17T09:26:15.107Z,99.90
2022-12-17T09:29:19.160Z,99.90
2022-12-17T09:32:23.098Z,99.90
2022-12-17T09:35:27.188Z,99.90
2022-12-17T09:38:32.148Z,99.90
2022-12-17T09:41:42.137Z,99.90
2022-12-17T09:44:59.389Z,99.90
2022-12-17T09:48:15.547Z,99.90
2022-12-17T09:51:20.338Z,99.90
2022-12-17T09:54:29.553Z,99.90
2022-12-17T09:57:38.615Z,99.90
2022-12-17T10:00:46.089Z,99.90
2022-12-17T10:03:53.978Z,99.90
2022-12-17T10:06:57.768Z,99.90
2022-12-17T10:10:02.530Z,99.90
2022-12-17T10:13:06.610Z,99.90
2022-12-17T10:16:10.730Z,99.90
2022-12-17T10:19:14.546Z,99.90
2022-12-17T10:22:26.545Z,99.90
2022-12-17T10:25:40.187Z,99.90
2022-12-17T10:28:44.182Z,99.90
2022-12-17T10:31:49.099Z,99.90
2022-12-17T10:34:58.296Z,99.90
2022-12-17T10:38:07.497Z,99.90
2022-12-17T10:41:11.518Z,99.90
2022-12-17T10:44:15.358Z,99.90
2022-12-17T10:47:19.477Z,99.90
2022-12-17T10:50:33.028Z,99.90
2022-12-17T10:53:41.016Z,99.90
2022-12-17T10:56:45.622Z,99.90
2022-12-17T10:59:54.484Z,99.90
2022-12-17T11:03:06.036Z,99.90
2022-12-17T11:06:13.588Z,99.90
2022-12-17T11:09:20.342Z,99.90
2022-12-17T11:12:30.815Z,99.90
2022-12-17T11:15:44.291Z,99.90
2022-12-17T11:18:53.397Z,99.90
2022-12-17T11:22:06.966Z,99.90
2022-12-17T11:25:31.713Z,99.90
2022-12-17T11:28:44.495Z,99.90
2022-12-17T11:32:13.545Z,99.90
2022-12-17T11:35:39.902Z,99.90
2022-12-17T11:38:51.876Z,99.90
2022-12-17T11:42:11.000Z,99.90
2022-12-17T11:45:26.052Z,99.90
2022-12-17T11:48:59.557Z,99.20
2022-12-17T11:52:22.331Z,99.90
2022-12-17T11:55:35.557Z,99.90
2022-12-17T11:59:05.887Z,99.90
2022-12-17T12:02:40.792Z,99.90
2022-12-17T12:06:02.044Z,99.70
2022-12-17T12:09:44.110Z,99.10
2022-12-17T12:13:05.394Z,99.50
2022-12-17T12:16:32.956Z,99.80
2022-12-17T12:19:57.128Z,99.50
2022-12-17T12:23:21.802Z,98.70
2022-12-17T12:26:39.507Z,97.50
2022-12-17T12:30:05.922Z,98.20
2022-12-17T12:33:47.465Z,98.50
2022-12-17T12:36:52.481Z,97.70
2022-12-17T12:40:09.324Z,97.60
2022-12-17T12:43:38.188Z,97.70
2022-12-17T12:46:56.728Z,97.80
2022-12-17T12:50:13.221Z,97.40
2022-12-17T12:53:17.988Z,97.10
2022-12-17T12:56:21.805Z,96.50
2022-12-17T12:59:46.736Z,97.10
2022-12-17T13:02:51.643Z,96.70
2022-12-17T13:05:44.798Z,96.80
2022-12-17T13:08:30.017Z,97.20
2022-12-17T13:11:38.797Z,96.50
2022-12-17T13:14:53.500Z,96.40
2022-12-17T13:17:54.921Z,96.20
2022-12-17T13:20:40.395Z,95.90
2022-12-17T13:23:45.874Z,95.80
2022-12-17T13:26:53.338Z,95.60
2022-12-17T13:29:38.441Z,95.60
2022-12-17T13:32:32.033Z,95.40
2022-12-17T13:35:44.670Z,95.00
2022-12-17T13:38:54.808Z,94.80
2022-12-17T13:41:40.070Z,95.00
2022-12-17T13:44:34.518Z,94.80
2022-12-17T13:47:31.729Z,94.60
2022-12-17T13:50:36.582Z,94.80
2022-12-17T13:53:22.408Z,94.60
2022-12-17T13:56:10.464Z,94.80
2022-12-17T13:58:59.209Z,94.60
2022-12-17T14:01:52.019Z,94.60
2022-12-17T14:04:38.325Z,94.90
2022-12-17T14:07:26.028Z,94.70
2022-12-17T14:10:16.372Z,94.90
2022-12-17T14:13:10.465Z,94.60
2022-12-17T14:15:55.585Z,94.70
2022-12-17T14:18:51.401Z,94.40
2022-12-17T14:21:37.392Z,94.40
2022-12-17T14:24:27.186Z,94.40
2022-12-17T14:27:27.266Z,94.40
2022-12-17T14:31:02.658Z,94.00
2022-12-17T14:33:45.559Z,94.10
2022-12-17T14:36:32.101Z,93.90
2022-12-17T14:39:30.084Z,93.70
2022-12-17T14:42:29.161Z,93.90
2022-12-17T14:45:14.471Z,93.90
2022-12-17T14:48:04.146Z,93.80
2022-12-17T14:50:55.002Z,93.90
2022-12-17T14:53:40.452Z,93.70
2022-12-17T14:56:25.870Z,93.60
2022-12-17T14:59:33.460Z,93.20
2022-12-17T15:02:24.137Z,92.90
2022-12-17T15:05:15.135Z,94.00
2022-12-17T15:08:00.343Z,93.60
2022-12-17T15:10:45.732Z,93.40
2022-12-17T15:13:31.258Z,93.00
2022-12-17T15:16:16.852Z,93.10
2022-12-17T15:19:02.566Z,92.80
2022-12-17T15:21:47.756Z,92.80
2022-12-17T15:24:33.065Z,93.10
2022-12-17T15:27:18.707Z,92.70
2022-12-17T15:30:04.490Z,92.80
2022-12-17T15:32:50.029Z,93.10
2022-12-17T15:35:36.335Z,93.20
2022-12-17T15:38:21.432Z,93.20
2022-12-17T15:41:25.873Z,93.80
2022-12-17T15:44:11.357Z,92.50
2022-12-17T15:46:56.613Z,94.20
2022-12-17T15:49:43.685Z,94.20
2022-12-17T15:52:28.855Z,93.90
2022-12-17T15:55:14.554Z,93.90
2022-12-17T15:57:59.570Z,93.90
2022-12-17T16:00:44.932Z,93.70
2022-12-17T16:03:30.440Z,93.50
2022-12-17T16:06:16.969Z,97.30
2022-12-17T16:09:02.312Z,99.90
2022-12-17T16:11:47.793Z,98.00
2022-12-17T16:14:33.098Z,97.50
2022-12-17T16:17:18.347Z,97.20
2022-12-17T16:20:05.870Z,97.20
2022-12-17T16:22:51.165Z,99.70
2022-12-17T16:25:36.473Z,96.00
2022-12-17T16:28:21.820Z,95.70
2022-12-17T16:31:10.766Z,95.10
2022-12-17T16:33:56.254Z,94.90
2022-12-17T16:36:41.923Z,94.80
2022-12-17T16:39:27.140Z,96.60
2022-12-17T16:42:12.581Z,96.80
2022-12-17T16:44:58.131Z,95.40
2022-12-17T16:47:43.500Z,95.70
2022-12-17T16:50:30.469Z,96.80
2022-12-17T16:53:16.363Z,96.10
2022-12-17T16:56:01.445Z,96.70
2022-12-17T16:58:47.195Z,95.80
2022-12-17T17:01:32.465Z,96.30
2022-12-17T17:04:19.688Z,96.30
2022-12-17T17:07:04.964Z,96.00
2022-12-17T17:09:50.423Z,95.80
2022-12-17T17:12:35.657Z,95.40
2022-12-17T17:15:22.412Z,96.20
2022-12-17T17:18:07.667Z,96.30
2022-12-17T17:20:52.886Z,94.20
2022-12-17T17:23:38.698Z,96.70
2022-12-17T17:26:24.725Z,97.00
2022-12-17T17:29:10.804Z,97.20
2022-12-17T17:32:12.999Z,97.40
2022-12-17T17:34:58.968Z,97.00
2022-12-17T17:37:44.329Z,95.30
2022-12-17T17:40:29.741Z,95.10
2022-12-17T17:43:15.110Z,94.50
2022-12-17T17:46:08.637Z,94.50
2022-12-17T17:48:57.204Z,94.10
2022-12-17T17:54:49.547Z,95.50
2022-12-17T17:57:34.742Z,96.30
2022-12-17T18:00:20.437Z,96.20
2022-12-17T18:03:05.872Z,95.60
2022-12-17T18:05:51.283Z,95.60
2022-12-17T18:08:38.141Z,95.40
2022-12-17T18:11:24.464Z,95.60
2022-12-17T18:14:12.926Z,96.80
2022-12-17T18:16:57.993Z,96.40
2022-12-17T18:19:43.606Z,96.80
2022-12-17T18:22:28.904Z,97.40
2022-12-17T18:25:15.457Z,96.90
2022-12-17T18:28:00.666Z,96.90
2022-12-17T18:30:45.925Z,96.80
2022-12-17T18:33:31.319Z,96.60
2022-12-17T18:36:22.962Z,95.70
2022-12-17T18:39:13.807Z,95.90
2022-12-17T18:42:18.010Z,96.10
2022-12-17T18:45:03.504Z,96.00
2022-12-17T18:47:49.795Z,96.30
2022-12-17T18:50:35.516Z,95.20
2022-12-17T18:53:20.814Z,95.70
2022-12-17T18:56:10.627Z,95.30
2022-12-17T18:58:57.449Z,94.40
2022-12-17T19:01:43.753Z,95.10
2022-12-17T19:04:29.158Z,96.10
2022-12-17T19:07:14.600Z,95.60
2022-12-17T19:10:00.158Z,95.50
2022-12-17T19:12:45.499Z,95.80
2022-12-17T19:15:30.953Z,95.20
2022-12-17T19:18:16.366Z,94.50
2022-12-17T19:21:02.126Z,95.30
2022-12-17T19:23:48.124Z,95.60
2022-12-17T19:26:34.038Z,94.50
2022-12-17T19:29:20.876Z,95.50
2022-12-17T19:32:06.161Z,95.80
2022-12-17T19:34:51.585Z,95.80
2022-12-17T19:37:36.873Z,95.80
2022-12-17T19:40:22.349Z,96.10
2022-12-17T19:43:07.581Z,95.40
2022-12-17T19:45:53.098Z,95.60
2022-12-17T19:48:45.015Z,94.80
2022-12-17T19:51:33.996Z,95.60
2022-12-17T19:54:19.495Z,95.80
2022-12-17T19:57:04.968Z,95.20
2022-12-17T19:59:50.244Z,96.10
2022-12-17T20:02:35.954Z,96.00
2022-12-17T20:05:21.792Z,95.90
2022-12-17T20:08:07.098Z,95.30
2022-12-17T20:10:52.837Z,95.40
2022-12-17T20:13:38.869Z,95.20
2022-12-17T20:16:24.864Z,94.80
2022-12-17T20:19:22.474Z,95.80
2022-12-17T20:22:08.131Z,95.80
2022-12-17T20:24:53.905Z,94.70
2022-12-17T20:27:39.522Z,96.00
2022-12-17T20:30:25.954Z,96.10
2022-12-17T20:33:12.287Z,96.20
2022-12-17T20:36:05.273Z,96.20
2022-12-17T20:38:50.457Z,96.40
2022-12-17T20:41:36.382Z,96.00
2022-12-17T20:44:22.237Z,95.10
2022-12-17T20:47:08.236Z,95.10
2022-12-17T20:49:54.203Z,94.90
2022-12-17T20:52:40.559Z,95.20
2022-12-17T20:55:30.951Z,94.70
2022-12-17T20:58:16.886Z,95.20
2022-12-17T21:01:12.993Z,94.90
2022-12-17T21:03:59.380Z,95.00
2022-12-17T21:06:46.893Z,94.90
2022-12-17T21:09:32.397Z,95.10
2022-12-17T21:12:17.751Z,95.00
2022-12-17T21:15:03.413Z,95.40
2022-12-17T21:17:48.762Z,94.40
2022-12-17T21:20:34.226Z,95.30
2022-12-17T21:23:19.496Z,95.40
2022-12-17T21:26:27.316Z,95.20
2022-12-17T21:29:13.165Z,94.80
2022-12-17T21:31:58.568Z,94.60
2022-12-17T21:34:43.906Z,95.00
2022-12-17T21:37:29.456Z,95.30
2022-12-17T21:40:14.881Z,95.00
2022-12-17T21:43:02.988Z,94.80
2022-12-17T21:45:48.399Z,94.80
2022-12-17T21:48:41.152Z,94.90
2022-12-17T21:51:28.843Z,95.60
2022-12-17T21:54:19.223Z,95.20
2022-12-17T21:57:05.099Z,94.30
2022-12-17T21:59:50.388Z,95.00
2022-12-17T22:02:36.714Z,95.20
2022-12-17T22:05:22.117Z,95.30
2022-12-17T22:08:07.616Z,94.80
2022-12-17T22:10:53.361Z,94.50
2022-12-17T22:14:06.789Z,94.70
2022-12-17T22:16:53.444Z,94.30
2022-12-17T22:19:38.879Z,94.40
2022-12-17T22:22:24.183Z,93.80
2022-12-17T22:25:11.579Z,93.60
2022-12-17T22:27:57.892Z,95.20
2022-12-17T22:31:01.892Z,95.30
2022-12-17T22:34:52.369Z,95.50
2022-12-17T22:38:47.419Z,94.60
2022-12-17T22:43:13.475Z,95.40
2022-12-17T22:44:39.222Z,95.50
2022-12-17T22:46:32.509Z,94.40
2022-12-17T22:49:18.026Z,94.80
2022-12-17T22:52:03.474Z,95.00
2022-12-17T22:54:49.005Z,95.50
2022-12-17T22:57:37.947Z,95.10
2022-12-17T23:00:28.924Z,94.60
2022-12-17T23:03:14.222Z,93.90
2022-12-17T23:06:17.300Z,94.50
2022-12-17T23:09:02.331Z,93.90
2022-12-17T23:11:49.175Z,94.20
2022-12-17T23:14:34.255Z,93.60
2022-12-17T23:17:19.744Z,93.80
2022-12-17T23:20:05.684Z,93.40
2022-12-17T23:22:51.054Z,93.50
2022-12-17T23:25:36.323Z,93.30
2022-12-17T23:28:21.585Z,94.20
2022-12-17T23:31:12.437Z,93.00
2022-12-17T23:33:58.049Z,92.90
2022-12-17T23:36:43.557Z,93.40
2022-12-17T23:39:28.997Z,93.10
2022-12-17T23:42:14.455Z,93.40
2022-12-17T23:44:59.785Z,92.50
2022-12-17T23:47:45.287Z,93.40
2022-12-17T23:50:30.618Z,93.60
2022-12-17T23:53:16.032Z,94.40
2022-12-17T23:56:11.954Z,94.60
2022-12-17T23:58:59.680Z,93.90
